Hamdan Juma

Olheiro - Al Wasl
9 Jul 2028
Domingo
Processo

Personalidade

Adaptabilidade (13) Ambição (11) Controvérsia (17) Lealdade (1) Pressão (20) Profissionalismo (12) Espírito Esportivo (11) Temperamento (4)

Perfil

Estilo de Treinamento Democrático
Licença Nacional A
Determinação 10
Gestão de Pessoas 5
Motivação 9
Disciplina 7
Satisfação no Trabalho
100%
Fadiga
0%
Função Olheiro
Salário 42.7K p/s
Contrato 14.03.2030

Desempenho

Comportamento Bom
Eficácia do Treinamento
43%
Desenvolvimento do Jogador
45%
Prevenção de Lesões
65%
Implementação Tática
40%

Eventos Recentes

Participou de uma reunião de recrutamento agora
Recomendou um alvo de transferência agora
Participou de uma reunião de recrutamento 7d atrás
Recomendou um alvo de transferência 7d atrás
Recomendou um alvo de transferência 7d atrás
Recomendou um alvo de transferência 14d atrás
Recomendou um alvo de transferência 14d atrás
Apresentou um dossiê à direção 14d atrás

Monitorando agora

96
Jogador Clube Status Habilidade Confiança Observado Última observação Último voto
Ali Saleh Emirates Club Relatório pronto 122 / 127 69% 1 03.07.2028 -
Favour Ogbu Al Wahda Relatório pronto 119 / 113 69% 1 06.06.2028 -
Adrian Şut Al Ain Ativo 130 / 130 69% 1 01.06.2028 Aprovar
Josh Nichols Oldham Athletic Ativo 114 / 121 40% 4 23.01.2028 -
Matvey Bardachev Zenit Ativo 113 / 113 40% 3 20.01.2028 -
Matias Siltanen Malmo FF Ativo 124 / 138 40% 3 20.01.2028 -
Nazareno Roselli Defensa y Justicia Ativo 113 / 127 40% 3 20.01.2028 -
Daniel Banjaqui Benfica Ativo 122 / 133 40% 2 19.01.2028 -
Edvard Pettersen Sandefjord Ativo 105 / 120 40% 5 18.01.2028 -
Amir Mohammad Razzaghinia Esteghlal Ativo 113 / 117 40% 1 18.01.2028 -
Martim Cunha Porto Ativo 110 / 116 40% 4 17.01.2028 -
Nahuel Leivas Montevideo City Torque Ativo 101 / 104 40% 1 17.01.2028 -
Victor Hernandez Santa Fe Ativo 118 / 133 40% 9 17.12.2027 -
Diego Vargas Universidad de Concepcion Ativo 100 / 95 40% 4 17.12.2027 -
Joel Ezra Enyimba Ativo 91 / 106 40% 5 13.12.2027 -
Björn Hedlöf Helsingborg Ativo 87 / 97 40% 3 10.12.2027 -
Gonçalo Oliveira Benfica Ativo 117 / 127 40% 4 10.12.2027 -
Tiago Freitas Benfica Ativo 118 / 128 40% 2 08.12.2027 -
Vince Osuji Stabaek Ativo 106 / 117 40% 2 07.12.2027 -
Colin Guske Orlando City Ativo 91 / 97 40% 3 06.12.2027 -
Kieran Morgan Queens Park Rangers Ativo 116 / 123 40% 1 06.12.2027 -
Mohamed Moussa Koïta Mathare United Ativo 101 / 100 40% 4 03.12.2027 -
Riquelme Thompson-Jones Accrington Stanley Ativo 114 / 113 40% 1 03.12.2027 -
Igor Felisberto Sport Recife Ativo 99 / 109 40% 1 03.12.2027 -
Noa Mikić Imotski Ativo 119 / 121 40% 1 01.12.2027 -
Josh Torquato FC Dallas Ativo 88 / 93 40% 3 30.11.2027 -
Juan Manuel Villalba Tigre Ativo 122 / 120 40% 2 30.11.2027 -
Ulises Giménez River Plate Ativo 119 / 125 40% 2 29.11.2027 -
Ianis Marin Pandurii Ativo 96 / 94 40% 2 29.11.2027 -
Mohamed Bolivar Barranquilla Ativo 101 / 101 40% 1 25.11.2027 -
Jair Collahuazo Kudrivka Ativo 111 / 111 40% 2 22.11.2027 -
Mikkel Hope Haugesund Ativo 108 / 103 40% 2 22.11.2027 -
Thulani Manyama SuperSport United Ativo 120 / 122 40% 4 21.11.2027 -
Omid Moharrami Padideh Ativo 96 / 104 40% 1 15.11.2027 -
Itumeleng Jali Spezia Ativo 113 / 116 40% 1 05.11.2027 -
Godwin Oham Warri Wolves Ativo 98 / 85 40% 1 03.11.2027 -
Omar Abdelrahim Al Ahly Ativo 92 / 100 40% 1 06.10.2027 -
Issa Yusuf Shooting Stars Ativo 95 / 98 40% 1 06.09.2027 -
Tommaso Cecotti Carpi Ativo 105 / 101 40% 1 26.07.2027 -
Maxim Radchenko Rostov Ativo 90 / 93 40% 1 30.06.2027 -
Edwin Asamoah Berekum Chelsea Ativo 91 / 76 40% 1 15.06.2027 -
Leandro Martins Benfica Ativo 89 / 99 40% 1 15.06.2027 -
Malik Mothersille Stockport County Ativo 123 / 110 40% 2 26.05.2027 -
Lewis Bate Stockport County Ativo 123 / 126 40% 2 26.05.2027 -
Tyler Goodrham Oxford United Ativo 114 / 121 40% 2 24.05.2027 -
Oston O'runov Persepolis Ativo 121 / 117 40% 1 24.05.2027 -
Sonny Carey Charlton Athletic Ativo 118 / 122 40% 1 24.05.2027 -
Oswin Appollis Orlando Pirates Ativo 121 / 129 40% 4 23.05.2027 -
Mohau Nkota Al-Ettifaq Ativo 130 / 121 40% 2 23.05.2027 -
Darragh Burns Grimsby Town Ativo 106 / 106 40% 2 22.05.2027 -
Tyreece Campbell Charlton Athletic Ativo 114 / 127 40% 2 22.05.2027 -
Dale Taylor Blackpool Ativo 119 / 107 40% 2 20.05.2027 -
Marouan Azarkan Al Nasr Ativo 131 / 125 40% 2 20.05.2027 -
Ibrahim Bayesh Al Dhafra Ativo 125 / 124 40% 3 17.05.2027 -
Joel Bagan Cardiff City Ativo 120 / 121 40% 1 17.05.2027 -
Luca Connell Barnsley Ativo 107 / 107 40% 1 16.05.2027 -
Declan Frith Peterborough United Ativo 116 / 110 40% 1 15.05.2027 -
David Turnbull Cardiff City Ativo 117 / 118 40% 2 13.05.2027 -
Othmane Maamma Watford Ativo 128 / 126 40% 1 13.05.2027 -
Andre Brooks Sheffield United Ativo 129 / 123 40% 1 13.05.2027 -
Sam Bell Bristol City Ativo 119 / 123 40% 1 12.05.2027 -
Stiven Shpendi Empoli Ativo 123 / 118 40% 1 09.05.2027 -
Alex Robertson Cardiff City Ativo 122 / 118 40% 2 05.05.2027 -
Tony Springett Cheltenham Town Ativo 113 / 102 40% 2 04.05.2027 -
Ar'jany Martha Rotherham United Ativo 101 / 116 40% 3 03.05.2027 -
Zeidane Inoussa Swansea City Ativo 125 / 122 40% 1 03.05.2027 -
Sam Greenwood Bristol City Ativo 122 / 125 40% 1 29.04.2027 -
Alex Lowry Wycombe Wanderers Ativo 110 / 116 40% 1 29.04.2027 -
Xavier Amaechi Plymouth Argyle Ativo 106 / 112 40% 1 26.04.2027 -
Pelle Mattsson Norwich City Ativo 125 / 129 40% 1 22.04.2027 -
Milson Al Jazira Ativo 127 / 128 40% 1 22.04.2027 -
Saleh Abu Al-Shamat Al-Ahli Ativo 116 / 119 40% 4 11.04.2027 -
Bradley Zwane SuperSport United Ativo 118 / 120 40% 2 11.04.2027 -
Harvey Knibbs Charlton Athletic Ativo 105 / 114 40% 1 11.04.2027 -
Merwane Khelif MC Alger Ativo 119 / 116 40% 1 08.04.2027 -
Mohanad Ali Dibba Ativo 121 / 111 62% 1 01.01.2027 Aprovar
Yacine Adli Al-Shabab Ativo 136 / 135 40% 2 31.12.2026 -
Mihai Lixandru Al-Fateh Ativo 107 / 110 40% 2 30.12.2026 -
Reda Khadra Qarabag Ativo 133 / 139 40% 2 30.12.2026 -
Mamadou Coulibaly Al Jazira Ativo 126 / 130 40% 2 29.12.2026 -
Lebogang Manyama SuperSport United Ativo 127 / 120 40% 2 25.12.2026 -
Musab Al-Juwayr Al-Qadisiyah Ativo 124 / 128 40% 1 25.12.2026 -
Zaydou Youssouf Al-Fateh Ativo 127 / 123 40% 1 20.12.2026 -
Aiman Yahya Al-Nassr Ativo 114 / 119 40% 3 19.12.2026 -
Abdullah Al Shamsi Al Shabab Ativo 109 / 109 40% 2 19.12.2026 -
Nawaf Bu Washl Al-Nassr Ativo 108 / 113 40% 2 16.12.2026 -
Ali Majrashi Al-Ahli Ativo 121 / 125 40% 2 09.12.2026 -
Bongani Zungu Ajax Cape Town Ativo 117 / 122 40% 1 07.12.2026 -
Ziyad Al-Johani Al-Ahli Ativo 109 / 119 40% 1 28.11.2026 -
Juan Pablo Gallego Fehervar Ativo 125 / 106 40% 1 27.11.2026 -
Ahmed Al-Ghamdi Al-Ittihad Ativo 97 / 101 40% 2 21.11.2026 -
Abdulmalik Al-Jaber Al-Nassr Ativo 112 / 105 40% 1 20.11.2026 -
Imad Riahi Najran Ativo 111 / 101 40% 1 20.11.2026 -
Marin Petkov Al-Taawoun Ativo 120 / 129 40% 1 18.11.2026 -
Armstrong Oko-Flex Levski Ativo 105 / 108 40% 1 03.11.2026 -
Hamad Al Bloushi Al Shaab Ativo 106 / 118 58% 1 17.08.2026 -